Grangeville, ID (83530)

10:59 PM PDT on April 22, 2017 (GMT -0700)
Elk St. | | Change Station

Elev 3460 ft 45.92 °N, 116.13 °W | Updated 1 second ago

Scattered Clouds
Scattered Clouds
49.1 °F
Feels Like 49 °F
N
1.0
Wind Variable Wind from NNE
Gusts 8.0 mph

Today
High -- | Low -- °F
--% Chance of Precip.
Yesterday
High -- | Low -- °F
Precip. -- in
Pressure 29.93 in
Visibility 10.0 miles
Clouds Scattered Clouds 9000 ft
Scattered Clouds 12000 ft
Windchill 49 °F
Dew Point 38 °F
Humidity 65%
Rainfall 0.00 in
Snow Depth Not available.
5:45 AM 7:41 PM
Waning Crescent, 14% visible
METAR KGIC 230555Z AUTO 08004KT 10SM SCT090 SCT120 08/03 A2993 RMK AO1
Pressure 29.93 in
Visibility 10.0 miles
Clouds Scattered Clouds 9000 ft
Scattered Clouds 12000 ft
Windchill 49 °F
Dew Point 38 °F
Humidity 65%
Rainfall 0.00 in
Snow Depth Not available.
5:45 AM 7:41 PM
Waning Crescent, 14% visible
METAR KGIC 230555Z AUTO 08004KT 10SM SCT090 SCT120 08/03 A2993 RMK AO1

Get Severe Weather Alerts

Thanks for signing up!

Be on the lookout for a verification email in your inbox.

You'll start receiving the daily forecast at 8 AM.

×

10-Day Weather Forecast

Almanac

Astronomy

Apr. 22, 2017 Rise Set
Actual Time
Civil Twilight
Nautical Twilight
Astronomical Twilight
Moon
Length of Visible Light
Length of Day
Tomorrow will be .
, % of the Moon is Illuminated

Today's Extremes

State Highs State Lows

Community

WunderPhotos

WunderBlog® & News

Nearby

Air Quality

  Air Quality AQ Index Pollutant
Not available.

Snow Depth

Station Depth Elevation

Earthquake Activity

City Distance Mag. Time & Date
Minimum magnitude displayed is 2.5.

Coastal Water Temperatures

Place Temperature

Stations

Nearby Weather Stations

Station Location Temp. Windchill Dew Point Humidity Wind Precip. Elev Updated Type
                   

Watches & Warnings

There are currently no watches in effect.